Time;durP1;ratioP1;P1;durP2;ratioP2;P2;SDS_P1;SDS_P2;PMS_P1;PMS_P2;Temp;Humidity;BMP_temperature;BMP_pressure;BME280_temperature;BME280_humidity;BME280_pressure;Samples;Min_cycle;Max_cycle;Signal;HPM_P1;HPM_P2
2024/04/10 00:02:04;;;;;;;4.97;3.10;;;;;;;;;;5356198;26;20549;-87
2024/04/10 00:04:32;;;;;;;4.53;3.67;;;;;;;;;;5350627;26;20857;-86
2024/04/10 00:07:00;;;;;;;7.63;5.00;;;11.80;1.00;;;;;;5349808;26;20493;-86
2024/04/10 00:09:29;;;;;;;9.70;4.70;;;11.80;1.00;;;;;;5349842;26;20485;-86
2024/04/10 00:11:57;;;;;;;7.40;5.67;;;11.80;1.00;;;;;;5350494;26;20521;-86
2024/04/10 00:14:23;;;;;;;15.63;9.17;;;11.80;94.80;;;;;;5350677;26;20453;-86
2024/04/10 00:16:52;;;;;;;8.93;7.30;;;11.70;99.90;;;;;;5351419;26;20472;-87
2024/04/10 00:19:18;;;;;;;10.97;7.03;;;11.60;99.90;;;;;;5349959;26;20469;-86
2024/04/10 00:21:47;;;;;;;10.00;5.90;;;11.50;1.00;;;;;;5350264;26;20477;-87
2024/04/10 00:24:13;;;;;;;8.90;4.80;;;11.40;19.00;;;;;;5350800;26;20973;-87
2024/04/10 00:26:45;;;;;;;5.50;3.10;;;11.70;58.50;;;;;;5354021;26;20461;-86
2024/04/10 00:29:10;;;;;;;6.00;3.30;;;11.60;9.10;;;;;;5354749;26;20845;-86
2024/04/10 00:31:39;;;;;;;8.00;3.70;;;11.60;1.00;;;;;;5353994;26;20513;-87
2024/04/10 00:34:05;;;;;;;7.03;5.03;;;11.40;1.00;;;;;;5353586;26;20457;-87
2024/04/10 00:36:33;;;;;;;3.90;3.57;;;11.40;99.90;;;;;;5354825;26;20508;-86
2024/04/10 00:38:59;;;;;;;7.53;3.40;;;11.40;99.90;;;;;;5353563;26;20866;-86
2024/04/10 00:41:29;;;;;;;5.90;3.80;;;;;;;;;;5353421;26;20465;-86
2024/04/10 00:43:57;;;;;;;6.27;3.80;;;11.40;99.90;;;;;;5352670;26;20486;-86
2024/04/10 00:46:27;;;;;;;7.40;2.47;;;;;;;;;;5353110;26;20461;-87
2024/04/10 00:48:54;;;;;;;3.97;2.80;;;;;;;;;;5352518;26;20469;-86
2024/04/10 00:51:23;;;;;;;3.70;2.40;;;;;;;;;;5353549;26;20461;-86
2024/04/10 00:53:50;;;;;;;3.63;2.23;;;;;;;;;;5353303;26;20493;-87
2024/04/10 00:56:19;;;;;;;4.67;2.77;;;;;;;;;;5356484;26;20465;-87
2024/04/10 00:58:47;;;;;;;7.93;2.67;;;;;;;;;;5355348;26;20476;-86
2024/04/10 01:01:19;;;;;;;2.60;2.30;;;;;;;;;;5361377;26;20433;-87
2024/04/10 01:03:46;;;;;;;4.50;2.27;;;;;;;;;;5356820;26;20425;-86
2024/04/10 01:06:15;;;;;;;2.30;2.10;;;;;;;;;;5356873;26;20659;-86
2024/04/10 01:08:41;;;;;;;6.33;2.90;;;11.50;99.90;;;;;;5355497;26;20993;-87
2024/04/10 01:11:11;;;;;;;6.03;3.97;;;;;;;;;;5357717;26;20600;-87
2024/04/10 01:13:37;;;;;;;6.23;3.60;;;11.50;99.90;;;;;;5356952;26;20860;-87
2024/04/10 01:16:07;;;;;;;5.93;3.33;;;;;;;;;;5363886;26;20607;-87
2024/04/10 01:18:36;;;;;;;4.93;3.10;;;;;;;;;;5357155;26;21075;-87
2024/04/10 01:21:05;;;;;;;5.07;3.23;;;;;;;;;;5357271;26;20542;-87
2024/04/10 01:23:35;;;;;;;3.33;2.27;;;;;;;;;;5356363;26;20453;-87
2024/04/10 01:26:04;;;;;;;4.87;2.70;;;;;;;;;;5356005;26;20461;-87
2024/04/10 01:28:30;;;;;;;6.20;2.80;;;11.50;99.90;;;;;;5356059;26;20501;-87
2024/04/10 01:30:58;;;;;;;3.77;2.20;;;11.50;99.90;;;;;;5355262;26;20502;-87
2024/04/10 01:33:24;;;;;;;5.77;2.30;;;11.60;83.40;;;;;;5355563;26;20433;-87
2024/04/10 01:35:53;;;;;;;2.03;1.90;;;11.60;1.00;;;;;;5356796;26;20449;-86
2024/04/10 01:38:19;;;;;;;8.47;2.33;;;11.70;1.00;;;;;;5357028;26;20497;-86
2024/04/10 01:40:50;;;;;;;3.63;2.60;;;11.70;1.00;;;;;;5353143;26;20437;-85
2024/04/10 01:43:16;;;;;;;3.17;2.80;;;11.70;1.00;;;;;;5353221;26;20485;-86
2024/04/10 01:45:45;;;;;;;2.70;2.50;;;11.60;1.00;;;;;;5354383;26;20453;-86
2024/04/10 01:48:10;;;;;;;8.00;2.53;;;11.70;1.00;;;;;;5354370;26;20480;-86
2024/04/10 01:50:39;;;;;;;3.77;2.83;;;11.70;1.00;;;;;;5356058;26;20447;-86
2024/04/10 01:53:05;;;;;;;4.73;2.30;;;11.70;1.00;;;;;;5357435;26;20496;-86
2024/04/10 01:55:33;;;;;;;4.00;2.50;;;11.70;1.00;;;;;;5356731;26;20433;-86
2024/04/10 01:58:02;;;;;;;4.10;2.00;;;11.70;1.00;;;;;;5357410;26;20453;-86
2024/04/10 02:00:31;;;;;;;6.17;2.60;;;11.70;99.90;;;;;;5356108;26;20533;-86
2024/04/10 02:02:56;;;;;;;2.30;2.10;;;11.70;1.00;;;;;;5355740;26;20453;-86
2024/04/10 02:05:25;;;;;;;5.93;2.13;;;11.90;99.90;;;;;;5359467;26;20530;-86
2024/04/10 02:07:51;;;;;;;4.53;2.30;;;11.80;99.90;;;;;;5351848;26;20429;-86
2024/04/10 02:10:21;;;;;;;5.17;1.80;;;11.80;99.90;;;;;;5352237;26;20501;-87
2024/04/10 02:12:48;;;;;;;3.40;2.30;;;;;;;;;;5352722;26;20730;-87
2024/04/10 02:15:21;;;;;;;4.00;1.57;;;11.90;99.90;;;;;;5353224;26;20473;-87
2024/04/10 02:17:49;;;;;;;2.80;1.90;;;;;;;;;;5360409;26;20453;-85
2024/04/10 02:20:21;;;;;;;7.00;2.00;;;11.90;99.90;;;;;;5372390;26;20538;-84
2024/04/10 02:22:50;;;;;;;7.80;2.00;;;;;;;;;;5372454;26;20426;-87
2024/04/10 02:25:21;;;;;;;5.00;2.20;;;;;;;;;;5372217;26;20505;-85
2024/04/10 02:27:48;;;;;;;2.17;1.80;;;;;;;;;;5363466;26;20457;-86
2024/04/10 02:30:20;;;;;;;2.23;2.00;;;11.90;1.00;;;;;;5356441;26;20564;-87
2024/04/10 02:32:47;;;;;;;2.27;2.00;;;;;;;;;;5371049;26;20453;-86
2024/04/10 02:35:17;;;;;;;6.80;2.20;;;;;;;;;;5369358;26;20506;-87
2024/04/10 02:37:43;;;;;;;4.53;2.47;;;12.00;1.00;;;;;;5364287;26;20449;-87
2024/04/10 02:40:12;;;;;;;7.67;2.20;;;;;;;;;;5357044;26;20473;-87
2024/04/10 02:42:40;;;;;;;6.37;2.50;;;;;;;;;;5357861;26;20211;-86
2024/04/10 02:45:09;;;;;;;3.83;2.70;;;11.90;1.00;;;;;;5355507;26;20464;-86
2024/04/10 02:47:40;;;;;;;3.50;2.10;;;;;;;;;;5353738;26;20501;-86
2024/04/10 02:50:08;;;;;;;2.43;2.10;;;12.10;99.90;;;;;;5359090;26;20481;-86
2024/04/10 02:52:35;;;;;;;2.77;2.30;;;;;;;;;;5360634;26;20501;-86
2024/04/10 02:55:04;;;;;;;2.47;2.27;;;;;;;;;;5365703;26;20497;-86
2024/04/10 02:57:30;;;;;;;5.13;1.97;;;;;;;;;;5368819;26;20509;-86
2024/04/10 03:00:00;;;;;;;3.63;1.87;;;;;;;;;;5363475;26;20977;-86
2024/04/10 03:02:27;;;;;;;2.40;1.93;;;;;;;;;;5358752;26;20457;-87
2024/04/10 03:04:59;;;;;;;2.33;1.80;;;;;;;;;;5355470;26;20441;-86
2024/04/10 03:07:26;;;;;;;4.43;1.50;;;;;;;;;;5357278;26;20461;-87
2024/04/10 03:09:55;;;;;;;4.43;1.63;;;;;;;;;;5354510;26;20497;-86
2024/04/10 03:12:21;;;;;;;2.63;2.07;;;12.40;99.90;;;;;;5352296;26;20476;-87
2024/04/10 03:14:50;;;;;;;4.10;1.90;;;;;;;;;;5353596;26;20996;-87
2024/04/10 03:17:16;;;;;;;2.33;1.80;;;12.20;99.90;;;;;;5352998;26;21037;-86
2024/04/10 03:19:46;;;;;;;2.37;1.50;;;;;;;;;;5353613;26;20485;-87
2024/04/10 03:22:16;;;;;;;4.70;2.10;;;;;;;;;;5353520;26;20445;-86
2024/04/10 03:24:45;;;;;;;2.70;1.60;;;;;;;;;;5352863;26;20516;-87
2024/04/10 03:27:12;;;;;;;4.30;1.77;;;;;;;;;;5353442;26;20501;-87
2024/04/10 03:29:42;;;;;;;1.60;1.50;;;;;;;;;;5352202;26;20461;-87
2024/04/10 03:32:10;;;;;;;3.23;2.00;;;12.30;99.90;;;;;;5353118;26;20457;-87
2024/04/10 03:34:40;;;;;;;4.27;2.53;;;;;;;;;;5352987;26;20841;-87
2024/04/10 03:37:05;;;;;;;3.63;2.03;;;12.30;99.90;;;;;;5353040;26;20453;-87
2024/04/10 03:39:39;;;;;;;2.30;1.70;;;;;;;;;;5358625;26;20517;-86
2024/04/10 03:42:07;;;;;;;2.23;2.00;;;;;;;;;;5354591;26;20453;-86
2024/04/10 03:45:51;;;;;;;3.28;2.05;;;;;;;;;;5628938;25;1196785;-87
2024/04/10 03:48:22;;;;;;;1.83;1.63;;;;;;;;;;5630047;25;20195;-86
2024/04/10 03:50:52;;;;;;;4.77;2.10;;;;;;;;;;5593904;25;20393;-87
2024/04/10 03:53:23;;;;;;;3.70;2.20;;;;;;;;;;5592653;25;20522;-87
2024/04/10 03:55:50;;;;;;;2.87;1.80;;;;;;;;;;5593011;25;20506;-87
2024/04/10 03:58:20;;;;;;;2.50;2.30;;;;;;;;;;5592361;25;20499;-85
2024/04/10 04:00:51;;;;;;;2.50;1.87;;;;;;;;;;5592701;25;20428;-86
2024/04/10 04:03:21;;;;;;;5.73;2.13;;;;;;;;;;5590836;25;20440;-86
2024/04/10 04:05:49;;;;;;;4.37;1.93;;;;;;;;;;5590809;25;20424;-86
2024/04/10 04:08:20;;;;;;;6.17;2.43;;;;;;;;;;5590256;25;20496;-86
2024/04/10 04:10:47;;;;;;;2.53;2.20;;;;;;;;;;5591117;25;20551;-87
2024/04/10 04:13:16;;;;;;;3.83;2.13;;;12.10;99.90;;;;;;5606979;25;20480;-86
2024/04/10 04:15:44;;;;;;;4.83;2.63;;;;;;;;;;5607758;25;20408;-87
2024/04/10 04:18:16;;;;;;;3.43;2.43;;;;;;;;;;5597714;25;20808;-85
2024/04/10 04:20:45;;;;;;;4.67;2.43;;;;;;;;;;5597985;25;20535;-85
2024/04/10 04:23:13;;;;;;;5.37;2.30;;;11.90;99.90;;;;;;5592260;25;20496;-85
2024/04/10 04:25:40;;;;;;;3.30;2.73;;;12.00;99.90;;;;;;5592775;25;20492;-85
2024/04/10 04:28:10;;;;;;;7.53;2.30;;;;;;;;;;5594321;25;20549;-85
2024/04/10 04:30:37;;;;;;;4.83;1.87;;;;;;;;;;5591800;25;20500;-86
2024/04/10 04:33:08;;;;;;;4.10;3.27;;;;;;;;;;5592054;25;20532;-86
2024/04/10 04:35:38;;;;;;;5.97;2.20;;;;;;;;;;5591934;25;20607;-85
2024/04/10 04:38:08;;;;;;;4.63;2.17;;;;;;;;;;5591344;25;20436;-86
2024/04/10 04:40:35;;;;;;;2.53;1.80;;;;;;;;;;5590035;25;20444;-87
2024/04/10 04:43:08;;;;;;;3.43;2.00;;;;;;;;;;5589871;25;20447;-87
2024/04/10 04:45:34;;;;;;;3.63;2.60;;;11.90;99.90;;;;;;5597727;25;20456;-87
2024/04/10 04:48:02;;;;;;;3.40;2.60;;;12.10;99.90;;;;;;5604802;25;20432;-84
2024/04/10 04:50:28;;;;;;;4.03;2.70;;;12.10;99.90;;;;;;5489312;20;20473;-86
2024/04/10 04:53:00;;;;;;;6.27;2.90;;;12.00;99.90;;;;;;5444061;26;20517;-85
2024/04/10 04:55:27;;;;;;;3.80;2.13;;;;;;;;;;5436918;26;20454;-86
2024/04/10 04:57:57;;;;;;;3.27;2.23;;;;;;;;;;5425704;26;20596;-86
2024/04/10 05:00:24;;;;;;;4.87;2.23;;;;;;;;;;5432939;26;20545;-86
2024/04/10 05:02:53;;;;;;;5.13;2.33;;;12.00;99.90;;;;;;5429844;26;20505;-86
2024/04/10 05:05:19;;;;;;;4.03;2.43;;;12.10;99.90;;;;;;5425031;26;20854;-86
2024/04/10 05:07:48;;;;;;;2.73;2.33;;;12.20;99.90;;;;;;5426459;26;20438;-86
2024/04/10 05:10:19;;;;;;;4.20;2.73;;;12.20;99.90;;;;;;5424539;26;20439;-87
2024/04/10 05:12:50;;;;;;;2.23;2.00;;;12.30;99.90;;;;;;5430354;26;20425;-84
2024/04/10 05:15:16;;;;;;;5.00;2.27;;;12.10;99.90;;;;;;5442884;26;20470;-87
2024/04/10 05:17:48;;;;;;;3.93;3.00;;;;;;;;;;5436235;26;20510;-86
2024/04/10 05:20:15;;;;;;;12.10;3.60;;;;;;;;;;5424169;26;20446;-86
2024/04/10 05:22:46;;;;;;;7.90;2.77;;;12.20;99.90;;;;;;5424230;26;20431;-87
2024/04/10 05:25:16;;;;;;;5.30;2.80;;;;;;;;;;5424665;26;20454;-86
2024/04/10 05:27:52;;;;;;;3.23;2.93;;;;;;;;;;5423948;26;20507;-86
2024/04/10 05:30:20;;;;;;;8.47;2.60;;;12.10;99.90;;;;;;5424774;26;20522;-85
2024/04/10 05:32:49;;;;;;;4.10;2.80;;;12.10;99.90;;;;;;5423839;26;20431;-86
2024/04/10 05:35:15;;;;;;;5.53;2.73;;;12.00;99.90;;;;;;5423824;26;20450;-85
2024/04/10 05:37:48;;;;;;;3.13;2.30;;;;;;;;;;5424782;26;20423;-86
2024/04/10 05:40:16;;;;;;;3.83;2.70;;;;;;;;;;5427468;26;20510;-87
2024/04/10 05:42:48;;;;;;;2.43;2.00;;;12.10;99.90;;;;;;5424227;26;20450;-87
2024/04/10 05:45:17;;;;;;;6.23;3.27;;;;;;;;;;5423555;26;20511;-87
2024/04/10 05:47:51;;;;;;;2.70;2.20;;;;;;;;;;5423704;26;20521;-87
2024/04/10 05:50:18;;;;;;;6.60;2.93;;;;;;;;;;5423589;26;20461;-85
2024/04/10 05:52:48;;;;;;;4.53;2.73;;;;;;;;;;5422739;26;20450;-87
2024/04/10 05:55:15;;;;;;;2.90;2.30;;;;;;;;;;5424145;26;20502;-87
2024/04/10 05:57:45;;;;;;;2.90;2.40;;;;;;;;;;5436573;26;20438;-87
2024/04/10 06:00:17;;;;;;;4.07;2.10;;;;;;;;;;5432509;26;20494;-87
2024/04/10 06:02:48;;;;;;;6.13;3.00;;;;;;;;;;5424176;26;20443;-86
2024/04/10 06:05:15;;;;;;;4.10;3.00;;;;;;;;;;5423308;26;20779;-87
2024/04/10 06:07:45;;;;;;;4.53;2.80;;;;;;;;;;5421278;26;20430;-85
2024/04/10 06:10:13;;;;;;;4.67;2.90;;;;;;;;;;5423002;26;20466;-87
2024/04/10 06:12:41;;;;;;;7.33;3.90;;;12.40;99.90;;;;;;5423791;26;20851;-87
2024/04/10 06:15:10;;;;;;;7.20;4.23;;;12.50;99.90;;;;;;5426972;26;20454;-86
2024/04/10 06:17:38;;;;;;;4.63;3.70;;;12.60;99.90;;;;;;5424600;26;20454;-85
2024/04/10 06:20:11;;;;;;;4.33;3.67;;;;;;;;;;5425227;26;20466;-85
2024/04/10 06:22:40;;;;;;;4.80;4.07;;;;;;;;;;5426608;26;20565;-85
2024/04/10 06:25:10;;;;;;;4.00;3.50;;;;;;;;;;5425479;26;20458;-85
2024/04/10 06:27:38;;;;;;;6.37;3.53;;;;;;;;;;5427749;26;20422;-87
2024/04/10 06:30:09;;;;;;;5.80;3.60;;;;;;;;;;5425568;26;20482;-85
2024/04/10 06:32:36;;;;;;;4.63;3.60;;;;;;;;;;5425274;26;20435;-85
2024/04/10 06:35:10;;;;;;;5.33;4.23;;;12.30;74.70;;;;;;5424102;26;20474;-86
2024/04/10 06:37:41;;;;;;;7.07;4.10;;;12.30;99.90;;;;;;5425271;26;20446;-85
2024/04/10 06:40:10;;;;;;;12.30;4.23;;;;;;;;;;5426302;26;21073;-85
2024/04/10 06:42:40;;;;;;;8.37;4.00;;;;;;;;;;5430694;26;20477;-87
2024/04/10 06:45:08;;;;;;;5.13;3.97;;;;;;;;;;5435054;26;20447;-87
2024/04/10 06:47:38;;;;;;;4.83;3.90;;;;;;;;;;5439200;26;20555;-86
2024/04/10 06:50:08;;;;;;;7.87;3.97;;;;;;;;;;5431366;26;20506;-86
2024/04/10 06:52:38;;;;;;;7.73;4.43;;;;;;;;;;5430473;26;20454;-85
2024/04/10 06:55:06;;;;;;;8.57;4.40;;;;;;;;;;5437358;26;20430;-85
2024/04/10 06:57:36;;;;;;;5.50;3.80;;;;;;;;;;5433930;26;20869;-86
2024/04/10 07:00:12;;;;;;;7.60;3.43;;;;;;;;;;5425739;26;20475;-86
2024/04/10 07:02:44;;;;;;;8.30;3.87;;;;;;;;;;5430460;26;20526;-86
2024/04/10 07:05:14;;;;;;;5.77;3.43;;;;;;;;;;5440664;26;20422;-85
2024/04/10 07:07:44;;;;;;;4.50;2.90;;;;;;;;;;5430967;26;20455;-86
2024/04/10 07:10:12;;;;;;;5.90;3.93;;;;;;;;;;5426328;26;20479;-86
2024/04/10 07:12:41;;;;;;;4.33;3.10;;;;;;;;;;5422500;26;20795;-86
2024/04/10 07:15:08;;;;;;;7.13;3.80;;;;;;;;;;5428335;26;20514;-84
2024/04/10 07:17:38;;;;;;;7.37;3.20;;;;;;;;;;5433527;26;20463;-86
2024/04/10 07:20:07;;;;;;;4.73;3.93;;;;;;;;;;5432623;26;20482;-86
2024/04/10 07:22:40;;;;;;;10.80;4.73;;;;;;;;;;5431227;26;20520;-86
2024/04/10 07:25:08;;;;;;;5.87;3.87;;;;;;;;;;5430094;26;20502;-87
2024/04/10 07:27:38;;;;;;;5.70;3.73;;;;;;;;;;5428317;26;20506;-86
2024/04/10 07:30:05;;;;;;;8.70;3.90;;;;;;;;;;5428710;26;20523;-86
2024/04/10 07:32:34;;;;;;;6.00;3.30;;;;;;;;;;5427283;26;21037;-86
2024/04/10 07:35:01;;;;;;;10.23;4.63;;;;;;;;;;5425999;26;20546;-87
2024/04/10 07:37:30;;;;;;;3.30;3.00;;;13.10;99.90;;;;;;5431250;26;20510;-85
2024/04/10 07:39:59;;;;;;;6.33;3.90;;;;;;;;;;5426795;26;20513;-86
2024/04/10 07:42:28;;;;;;;7.63;4.20;;;;;;;;;;5425518;26;20581;-87
2024/04/10 07:44:55;;;;;;;4.30;3.13;;;;;;;;;;5425160;26;20820;-87
2024/04/10 07:47:25;;;;;;;5.20;3.37;;;;;;;;;;5423972;26;20462;-87
2024/04/10 07:49:53;;;;;;;7.63;3.13;;;;;;;;;;5427043;26;20501;-86
2024/04/10 07:52:23;;;;;;;9.43;4.30;;;;;;;;;;5428890;26;20454;-85
2024/04/10 07:54:50;;;;;;;9.93;5.83;;;;;;;;;;5422651;26;20465;-86
2024/04/10 07:57:22;;;;;;;6.63;4.23;;;;;;;;;;5422764;26;20563;-86
2024/04/10 07:59:50;;;;;;;6.90;4.57;;;;;;;;;;5423148;26;20506;-86
2024/04/10 08:02:21;;;;;;;7.00;4.07;;;;;;;;;;5424629;26;20557;-86
2024/04/10 08:04:48;;;;;;;8.00;4.70;;;;;;;;;;5423900;26;20431;-86
2024/04/10 08:07:19;;;;;;;5.10;3.83;;;;;;;;;;5423729;26;21051;-87
2024/04/10 08:09:47;;;;;;;5.07;4.57;;;;;;;;;;5424709;26;20454;-86
2024/04/10 08:12:17;;;;;;;3.83;3.40;;;;;;;;;;5431052;26;20804;-86
2024/04/10 08:14:46;;;;;;;7.37;4.43;;;;;;;;;;5428403;26;20427;-85
2024/04/10 08:17:16;;;;;;;11.17;4.80;;;;;;;;;;5429700;26;20518;-86
2024/04/10 08:19:43;;;;;;;5.93;3.80;;;;;;;;;;5432458;26;20548;-86
2024/04/10 08:22:12;;;;;;;7.87;4.37;;;;;;;;;;5431276;26;20442;-87
2024/04/10 08:24:39;;;;;;;5.60;3.50;;;;;;;;;;5426372;26;20703;-87
2024/04/10 08:27:09;;;;;;;6.73;3.60;;;;;;;;;;5436363;26;20521;-85
2024/04/10 08:29:36;;;;;;;4.53;3.40;;;;;;;;;;5424725;26;20823;-86
2024/04/10 08:32:08;;;;;;;5.03;4.57;;;;;;;;;;5426121;26;20446;-86
2024/04/10 08:34:36;;;;;;;8.47;4.10;;;;;;;;;;5427180;26;20450;-86
2024/04/10 08:37:07;;;;;;;7.10;4.57;;;;;;;;;;5429479;26;20450;-86
2024/04/10 08:39:35;;;;;;;7.67;4.60;;;;;;;;;;5442287;26;20454;-87
2024/04/10 08:42:06;;;;;;;6.50;4.90;;;13.50;97.90;;;;;;5444060;26;20451;-86
2024/04/10 08:44:32;;;;;;;9.43;5.00;;;13.50;67.90;;;;;;5435366;26;20517;-86
2024/04/10 08:47:02;;;;;;;8.50;3.90;;;;;;;;;;5428598;26;20962;-85
2024/04/10 08:49:30;;;;;;;5.50;4.73;;;13.60;46.80;;;;;;5427648;26;20518;-86
2024/04/10 08:52:01;;;;;;;4.70;4.17;;;;;;;;;;5427314;26;20509;-86
2024/04/10 08:54:28;;;;;;;4.70;3.80;;;;;;;;;;5427005;26;20379;-87
2024/04/10 08:56:58;;;;;;;4.90;4.10;;;;;;;;;;5427008;26;20466;-86
2024/04/10 08:59:27;;;;;;;5.90;3.17;;;13.30;51.10;;;;;;5433857;26;20466;-85
2024/04/10 09:01:57;;;;;;;6.30;3.90;;;13.60;7.60;;;;;;5431071;26;20853;-86
2024/04/10 09:04:25;;;;;;;4.70;3.17;;;;;;;;;;5427853;26;20507;-86
2024/04/10 09:07:03;;;;;;;3.63;3.10;;;;;;;;;;5427870;26;20490;-85
2024/04/10 09:09:31;;;;;;;8.80;4.37;;;;;;;;;;5428300;26;20458;-87
2024/04/10 09:12:03;;;;;;;4.40;3.60;;;;;;;;;;5427739;26;20548;-87
2024/04/10 09:14:33;;;;;;;4.90;3.40;;;;;;;;;;5431417;26;20430;-86
2024/04/10 09:17:04;;;;;;;4.30;3.33;;;;;;;;;;5426382;26;20451;-85
2024/04/10 09:19:34;;;;;;;3.50;3.20;;;;;;;;;;5425629;26;20488;-87
2024/04/10 09:22:03;;;;;;;3.40;3.00;;;;;;;;;;5435902;26;20467;-86
2024/04/10 09:24:34;;;;;;;7.17;3.40;;;;;;;;;;5435253;26;20458;-86
2024/04/10 09:27:02;;;;;;;4.07;2.90;;;;;;;;;;5427017;26;20872;-87
2024/04/10 09:29:32;;;;;;;4.70;2.90;;;;;;;;;;5427256;26;20524;-86
2024/04/10 09:32:04;;;;;;;4.83;3.20;;;;;;;;;;5428072;26;20492;-85
2024/04/10 09:34:34;;;;;;;6.17;3.77;;;;;;;;;;5426740;26;20817;-86
2024/04/10 09:37:05;;;;;;;3.37;2.70;;;13.80;86.80;;;;;;5429443;26;20978;-86
2024/04/10 09:39:35;;;;;;;5.20;2.20;;;;;;;;;;5434849;26;20509;-84
2024/04/10 09:42:04;;;;;;;2.43;2.23;;;;;;;;;;5435096;26;20495;-86
2024/04/10 09:44:35;;;;;;;4.83;2.80;;;;;;;;;;5436006;26;20454;-88
2024/04/10 09:47:03;;;;;;;4.60;2.37;;;;;;;;;;5434796;26;20446;-86
2024/04/10 09:49:35;;;;;;;2.53;2.33;;;;;;;;;;5427307;26;20474;-86
2024/04/10 09:52:07;;;;;;;4.43;2.40;;;13.90;25.00;;;;;;5427773;26;20946;-87
2024/04/10 09:54:37;;;;;;;3.10;2.80;;;;;;;;;;5427703;26;20462;-87
2024/04/10 09:57:04;;;;;;;2.70;2.50;;;;;;;;;;5427089;26;20510;-87
2024/04/10 09:59:38;;;;;;;2.57;2.37;;;;;;;;;;5435485;26;20478;-85
2024/04/10 10:02:09;;;;;;;2.40;2.20;;;;;;;;;;5441781;26;20585;-83
2024/04/10 10:04:41;;;;;;;5.20;2.77;;;;;;;;;;5442069;26;20438;-86
2024/04/10 10:07:11;;;;;;;4.07;2.00;;;;;;;;;;5434577;26;20629;-86
2024/04/10 10:09:41;;;;;;;1.90;1.80;;;;;;;;;;5441141;26;20462;-84
2024/04/10 10:12:08;;;;;;;9.30;2.50;;;;;;;;;;5429138;26;20450;-86
2024/04/10 10:14:38;;;;;;;5.13;2.83;;;;;;;;;;5427798;26;20470;-85
2024/04/10 10:17:07;;;;;;;4.37;2.57;;;13.80;29.70;;;;;;5428880;26;20454;-86
2024/04/10 10:19:38;;;;;;;5.23;2.60;;;;;;;;;;5429676;26;20458;-86
2024/04/10 10:22:05;;;;;;;3.83;2.10;;;;;;;;;;5426658;26;20474;-86
2024/04/10 10:24:38;;;;;;;4.63;2.20;;;;;;;;;;5394467;26;20490;-86
2024/04/10 10:27:05;;;;;;;8.10;2.53;;;;;;;;;;5429380;26;20379;-85
2024/04/10 10:29:36;;;;;;;4.00;3.00;;;;;;;;;;5425583;26;20505;-86
2024/04/10 10:32:05;;;;;;;5.97;2.47;;;;;;;;;;5425237;26;20807;-85
2024/04/10 10:34:34;;;;;;;3.73;2.40;;;;;;;;;;5426508;26;20458;-86
2024/04/10 10:37:04;;;;;;;4.80;2.13;;;;;;;;;;5436933;26;20503;-85
2024/04/10 10:39:43;;;;;;;2.20;1.67;;;14.20;45.60;;;;;;5437775;26;20478;-86
2024/04/10 10:42:09;;;;;;;2.67;2.47;;;14.30;32.00;;;;;;5431811;26;20510;-85
2024/04/10 10:44:39;;;;;;;4.27;2.10;;;;;;;;;;5436896;26;20466;-86
2024/04/10 10:47:09;;;;;;;4.17;2.50;;;;;;;;;;5431347;26;20546;-86
2024/04/10 10:49:39;;;;;;;5.03;2.10;;;;;;;;;;5456062;21;20504;-84
2024/04/10 10:52:08;;;;;;;5.50;2.60;;;;;;;;;;5459724;26;20507;-84
2024/04/10 10:54:41;;;;;;;3.70;2.40;;;;;;;;;;5459423;26;20457;-85
2024/04/10 10:57:09;;;;;;;7.93;2.70;;;;;;;;;;5460681;26;20437;-86
2024/04/10 10:59:40;;;;;;;5.17;1.83;;;;;;;;;;5459914;26;20579;-84
2024/04/10 11:02:15;;;;;;;3.70;1.70;;;;;;;;;;5460107;26;20980;-85
2024/04/10 11:04:45;;;;;;;3.90;1.63;;;;;;;;;;5460672;26;20504;-84
2024/04/10 11:07:20;;;;;;;7.70;1.80;;;;;;;;;;5460157;26;20465;-84
2024/04/10 11:09:52;;;;;;;3.17;1.83;;;;;;;;;;5459591;26;20480;-84
2024/04/10 11:12:20;;;;;;;6.47;1.70;;;;;;;;;;5459586;26;20433;-85
2024/04/10 11:14:51;;;;;;;2.07;1.33;;;;;;;;;;5459844;26;20449;-84
2024/04/10 11:17:20;;;;;;;2.00;1.43;;;;;;;;;;5465759;26;20433;-84
2024/04/10 11:19:50;;;;;;;2.23;1.30;;;;;;;;;;5465275;26;20476;-84
2024/04/10 11:22:19;;;;;;;1.93;1.63;;;;;;;;;;5464165;26;20976;-84
2024/04/10 11:24:49;;;;;;;2.00;1.47;;;;;;;;;;5461394;26;20512;-84
2024/04/10 11:27:19;;;;;;;2.00;1.60;;;;;;;;;;5463042;26;20453;-85
2024/04/10 11:29:51;;;;;;;1.53;1.27;;;;;;;;;;5462521;26;20521;-84
2024/04/10 11:32:19;;;;;;;3.37;1.47;;;;;;;;;;5459665;26;20460;-84
2024/04/10 11:34:50;;;;;;;2.27;1.27;;;;;;;;;;5459941;26;20457;-86
2024/04/10 11:37:17;;;;;;;2.93;1.80;;;;;;;;;;5459561;26;20457;-84
2024/04/10 11:39:47;;;;;;;1.40;1.30;;;;;;;;;;5459779;26;21134;-85
2024/04/10 11:42:14;;;;;;;3.67;1.37;;;;;;;;;;5460243;26;20991;-84
2024/04/10 11:44:47;;;;;;;3.17;1.23;;;;;;;;;;5460371;26;20488;-87
2024/04/10 11:47:15;;;;;;;1.30;1.20;;;;;;;;;;5460906;26;20517;-85
2024/04/10 11:49:45;;;;;;;1.53;1.03;;;;;;;;;;5459931;26;20510;-85
2024/04/10 11:52:13;;;;;;;3.73;1.57;;;;;;;;;;5462330;26;20464;-84
2024/04/10 11:54:42;;;;;;;1.57;1.47;;;;;;;;;;5461463;26;20513;-84
2024/04/10 11:57:09;;;;;;;2.93;1.33;;;;;;;;;;5460007;26;20457;-84
2024/04/10 11:59:39;;;;;;;3.03;1.40;;;;;;;;;;5464994;26;20521;-85
2024/04/10 12:02:09;;;;;;;1.63;1.50;;;;;;;;;;5466582;26;20453;-85
2024/04/10 12:04:39;;;;;;;1.17;1.10;;;;;;;;;;5478009;26;20518;-82
2024/04/10 12:07:06;;;;;;;1.40;1.10;;;;;;;;;;5480917;26;20429;-85
2024/04/10 12:09:37;;;;;;;6.20;1.57;;;14.30;47.70;;;;;;5472311;26;20554;-85
2024/04/10 12:12:04;;;;;;;2.70;1.63;;;14.30;22.10;;;;;;5466545;26;20448;-85
2024/04/10 12:14:35;;;;;;;1.23;1.13;;;;;;;;;;5468690;26;20542;-84
2024/04/10 12:17:02;;;;;;;6.93;2.33;;;;;;;;;;5477915;26;20437;-84
2024/04/10 12:19:34;;;;;;;2.17;1.07;;;;;;;;;;5477806;26;20513;-84
2024/04/10 12:22:02;;;;;;;1.80;1.70;;;;;;;;;;5477845;26;20493;-85
2024/04/10 12:24:34;;;;;;;2.17;1.27;;;;;;;;;;5469721;26;20449;-85
2024/04/10 12:27:01;;;;;;;1.40;1.30;;;;;;;;;;5464990;26;20505;-85
2024/04/10 12:29:31;;;;;;;3.07;1.43;;;;;;;;;;5464488;26;20553;-85
2024/04/10 12:31:59;;;;;;;4.23;1.60;;;;;;;;;;5464575;26;20504;-85
2024/04/10 12:34:29;;;;;;;2.33;1.40;;;;;;;;;;5471372;26;20449;-84
2024/04/10 12:39:50;;;;;;;1.10;1.00;;;;;;;;;;5483166;26;20531;-83
2024/04/10 12:42:20;;;;;;;1.67;1.40;;;;;;;;;;5480360;26;20449;-85
2024/04/10 12:44:47;;;;;;;2.50;1.73;;;;;;;;;;5468571;26;20449;-85
2024/04/10 12:47:18;;;;;;;2.03;1.53;;;;;;;;;;5465218;26;20582;-83
2024/04/10 12:49:45;;;;;;;1.47;1.37;;;;;;;;;;5467619;26;20465;-85
2024/04/10 12:52:17;;;;;;;1.63;1.50;;;;;;;;;;5466824;26;20453;-84
2024/04/10 12:54:43;;;;;;;3.10;2.17;;;14.50;19.50;;;;;;5466425;26;20476;-85
2024/04/10 12:57:13;;;;;;;2.10;1.63;;;;;;;;;;5468415;26;20524;-84
2024/04/10 12:59:39;;;;;;;2.70;1.93;;;14.60;22.60;;;;;;5464505;26;20456;-84
2024/04/10 13:02:08;;;;;;;2.23;2.03;;;;;;;;;;5464062;26;21036;-85
2024/04/10 13:04:40;;;;;;;2.70;1.63;;;;;;;;;;5464056;26;20212;-85
2024/04/10 13:07:09;;;;;;;2.13;1.57;;;;;;;;;;5465988;26;20468;-85
2024/04/10 13:09:39;;;;;;;2.00;1.50;;;;;;;;;;5463248;26;20511;-85
2024/04/10 13:12:09;;;;;;;2.40;1.43;;;14.30;23.90;;;;;;5463109;26;21004;-85
2024/04/10 13:14:36;;;;;;;2.27;2.07;;;;;;;;;;5463231;26;21033;-84
2024/04/10 13:17:06;;;;;;;4.20;2.60;;;;;;;;;;5462185;26;20920;-84
2024/04/10 13:19:34;;;;;;;2.53;2.33;;;;;;;;;;5462764;26;20509;-85
2024/04/10 13:22:05;;;;;;;6.30;3.23;;;;;;;;;;5463601;26;20535;-85
2024/04/10 13:24:34;;;;;;;3.07;2.13;;;;;;;;;;5463121;26;20432;-85
2024/04/10 13:27:09;;;;;;;2.13;1.93;;;;;;;;;;5462119;26;20495;-85
2024/04/10 13:29:36;;;;;;;5.10;1.70;;;;;;;;;;5462100;26;20570;-86
2024/04/10 13:32:08;;;;;;;2.03;1.80;;;;;;;;;;5461570;26;20449;-83
2024/04/10 13:34:35;;;;;;;4.70;1.80;;;;;;;;;;5462822;26;20465;-88
2024/04/10 13:37:08;;;;;;;1.70;1.60;;;;;;;;;;5477024;26;20532;-88
2024/04/10 13:39:35;;;;;;;3.93;1.70;;;;;;;;;;5478084;26;20485;-85
2024/04/10 17:15:22;;;;;;;2.90;2.10;;;;;;;;;;6137637;22;20492;-90
2024/04/10 17:23:45;;;;;;;6.10;5.20;;;;;;;;;;5257929;27;20563;-91
2024/04/10 17:29:05;;;;;;;3.30;2.33;;;;;;;;;;5212871;27;20467;-92
2024/04/10 17:31:32;;;;;;;4.40;2.63;;;;;;;;;;5223711;27;20475;-92
2024/04/10 17:34:08;;;;;;;3.40;3.07;;;;;;;;;;5222624;27;20486;-93
2024/04/10 17:36:37;;;;;;;6.00;3.10;;;;;;;;;;5224183;27;20846;-92
2024/04/10 17:39:07;;;;;;;3.20;2.40;;;;;;;;;;5230365;27;20505;-92
2024/04/10 17:41:47;;;;;;;3.27;2.03;;;;;;;;;;5226192;27;20895;-93
2024/04/10 17:44:20;;;;;;;2.40;2.20;;;;;;;;;;5224452;27;20457;-91
2024/04/10 17:47:04;;;;;;;7.23;2.60;;;;;;;;;;5224450;27;21036;-92
2024/04/10 17:49:40;;;;;;;2.47;2.10;;;13.80;1.00;;;;;;5222898;27;20490;-92
2024/04/10 17:52:09;;;;;;;2.10;1.90;;;;;;;;;;5223621;27;20497;-92
2024/04/10 17:54:42;;;;;;;3.40;2.60;;;13.80;1.00;;;;;;5226637;27;20963;-92
2024/04/10 17:57:17;;;;;;;4.73;2.90;;;13.60;1.00;;;;;;5226651;27;21119;-90
2024/04/10 17:59:59;;;;;;;;;;;;;;;;;;;;;
2024/04/10 18:02:34;;;;;;;3.27;2.00;;;;;;;;;;5224264;27;20435;-92
2024/04/10 18:05:26;;;;;;;3.50;2.10;;;;;;;;;;5228137;27;20470;-92
2024/04/10 18:07:57;;;;;;;2.40;1.60;;;13.30;1.20;;;;;;5222867;27;20498;-90
2024/04/10 18:10:28;;;;;;;3.93;2.37;;;;;;;;;;5220408;27;20412;-92